^^
Datos históricos de la estación: Murcia-Puente Tocinos
Diario Informe para Julio 17, 2019 Unidades:  Ambas    Inglés   Métrico
Diario Semanal Mensual Anual Configurable
  Máximo: Mínimo: Media:
Temperatura: 88.7 °F /  31.5 °C 74.1 °F /  23.4 °C 81.1 °F /  27.3 °C
Punto de rocio: 67.3 °F /  19.6 °C 57 °F /  13.9 °C 63.5 °F /  17.5 °C
Humedad: 75% 35% 57%
Velocidad viento: 13.5mph /  21.7km/h - 5.3mph /  8.5km/h
Racha viento: 23mph /  37.0km/h - -
Viento- - ESE
Presión: 29.9 in /  1013.8 hPa 29.8 in /  1009.6 hPa -
Precipitación: 0 in /  0.0 mm    
Historical Graphs
 
 
Tabla de datos para Julio 17, 2019
Hora Temperatura Punto de rocio Presión Viento Velocidad viento Racha viento Humedad Intensidad lluvia(por hora) Nubes
00:04 77.5 °F /  25.3 °C 66.9 °F /  19.4 °C 29.9in /  1013.7hPa NE 4.3mph /  6.9km/h 4.6mph /  7.4km/h 70% 0in /  0.0mm CLR
00:09 77.5 °F /  25.3 °C 66.6 °F /  19.2 °C 29.9in /  1013.7hPa ENE 2.9mph /  4.7km/h 3.5mph /  5.6km/h 69% 0in /  0.0mm CLR
00:14 77.5 °F /  25.3 °C 66.6 °F /  19.2 °C 29.9in /  1013.7hPa NNE 2.9mph /  4.7km/h 4.3mph /  6.9km/h 69% 0in /  0.0mm CLR
00:19 77.5 °F /  25.3 °C 66.9 °F /  19.4 °C 29.9in /  1013.6hPa NE 2.9mph /  4.7km/h 4.6mph /  7.4km/h 70% 0in /  0.0mm CLR
00:24 77.5 °F /  25.3 °C 66.9 °F /  19.4 °C 29.9in /  1013.6hPa NE 2.9mph /  4.7km/h 4.6mph /  7.4km/h 70% 0in /  0.0mm CLR
00:29 77.4 °F /  25.2 °C 66.7 °F /  19.3 °C 29.9in /  1013.6hPa NE 3.1mph /  5.0km/h 4.7mph /  7.6km/h 70% 0in /  0.0mm CLR
00:34 77.4 °F /  25.2 °C 66.7 °F /  19.3 °C 29.9in /  1013.8hPa NE 3.1mph /  5.0km/h 3.5mph /  5.6km/h 70% 0in /  0.0mm CLR
00:39 77.2 °F /  25.1 °C 66.6 °F /  19.2 °C 29.9in /  1013.8hPa ENE 3.1mph /  5.0km/h 4.6mph /  7.4km/h 70% 0in /  0.0mm CLR
00:44 77.2 °F /  25.1 °C 66.6 °F /  19.2 °C 29.9in /  1013.8hPa NE 3.1mph /  5.0km/h 3.5mph /  5.6km/h 70% 0in /  0.0mm CLR
00:49 77.2 °F /  25.1 °C 66.9 °F /  19.4 °C 29.9in /  1013.6hPa North 2mph /  3.2km/h 2.9mph /  4.7km/h 71% 0in /  0.0mm CLR
00:54 77.2 °F /  25.1 °C 66.9 °F /  19.4 °C 29.9in /  1013.6hPa NE 2mph /  3.2km/h 5.4mph /  8.7km/h 71% 0in /  0.0mm CLR
00:59 77 °F /  25.0 °C 66.9 °F /  19.4 °C 29.9in /  1013.6hPa NE 2.9mph /  4.7km/h 4.6mph /  7.4km/h 71% 0in /  0.0mm CLR
01:04 77 °F /  25.0 °C 66.9 °F /  19.4 °C 29.9in /  1013.6hPa NE 2.9mph /  4.7km/h 3.6mph /  5.8km/h 71% 0in /  0.0mm CLR
01:09 77 °F /  25.0 °C 66.9 °F /  19.4 °C 29.9in /  1013.6hPa NE 2.4mph /  3.9km/h 4.6mph /  7.4km/h 71% 0in /  0.0mm CLR
01:14 77 °F /  25.0 °C 66.9 °F /  19.4 °C 29.9in /  1013.6hPa NE 2.4mph /  3.9km/h 4.6mph /  7.4km/h 71% 0in /  0.0mm CLR
01:19 77 °F /  25.0 °C 67.3 °F /  19.6 °C 29.9in /  1013.5hPa NE 3.1mph /  5.0km/h 5.8mph /  9.3km/h 72% 0in /  0.0mm CLR
01:24 77 °F /  25.0 °C 67.3 °F /  19.6 °C 29.9in /  1013.5hPa ENE 3.1mph /  5.0km/h 3.1mph /  5.0km/h 72% 0in /  0.0mm CLR
01:29 77.2 °F /  25.1 °C 66.9 °F /  19.4 °C 29.9in /  1013.5hPa ENE 3.1mph /  5.0km/h 4.6mph /  7.4km/h 71% 0in /  0.0mm CLR
01:34 77.2 °F /  25.1 °C 66.9 °F /  19.4 °C 29.9in /  1013.4hPa NE 3.1mph /  5.0km/h 4.6mph /  7.4km/h 71% 0in /  0.0mm CLR
01:39 77.2 °F /  25.1 °C 66.9 °F /  19.4 °C 29.9in /  1013.4hPa NE 2.9mph /  4.7km/h 4.7mph /  7.6km/h 71% 0in /  0.0mm CLR
01:44 77 °F /  25.0 °C 67.3 °F /  19.6 °C 29.9in /  1013.4hPa North 2.9mph /  4.7km/h 3.5mph /  5.6km/h 72% 0in /  0.0mm CLR
01:49 76.8 °F /  24.9 °C 67.1 °F /  19.5 °C 29.9in /  1013.2hPa ENE 3.1mph /  5.0km/h 3.5mph /  5.6km/h 72% 0in /  0.0mm CLR
01:54 77 °F /  25.0 °C 67.3 °F /  19.6 °C 29.9in /  1013.2hPa ENE 3.1mph /  5.0km/h 3.5mph /  5.6km/h 72% 0in /  0.0mm CLR
01:59 76.8 °F /  24.9 °C 67.1 °F /  19.5 °C 29.9in /  1013.2hPa NE 2mph /  3.2km/h 3.5mph /  5.6km/h 72% 0in /  0.0mm CLR
02:04 76.8 °F /  24.9 °C 66.7 °F /  19.3 °C 29.9in /  1013.2hPa ENE 2mph /  3.2km/h 2.4mph /  3.9km/h 71% 0in /  0.0mm CLR
02:09 76.8 °F /  24.9 °C 67.1 °F /  19.5 °C 29.9in /  1013.2hPa East 1.8mph /  2.9km/h   72% 0in /  0.0mm CLR
02:14 76.8 °F /  24.9 °C 67.1 °F /  19.5 °C 29.9in /  1013.2hPa East 1.8mph /  2.9km/h   72% 0in /  0.0mm CLR
02:19 76.8 °F /  24.9 °C 67.1 °F /  19.5 °C 29.9in /  1013.1hPa Calm     72% 0in /  0.0mm CLR
02:24 76.6 °F /  24.8 °C 66.9 °F /  19.4 °C 29.9in /  1013.1hPa Calm   3.5mph /  5.6km/h 72% 0in /  0.0mm CLR
02:29 76.6 °F /  24.8 °C 66.9 °F /  19.4 °C 29.9in /  1013.1hPa NNW 1.4mph /  2.3km/h 2.3mph /  3.7km/h 72% 0in /  0.0mm CLR
02:34 76.5 °F /  24.7 °C 66.7 °F /  19.3 °C 29.9in /  1013.1hPa NNW 1.4mph /  2.3km/h 3.5mph /  5.6km/h 72% 0in /  0.0mm CLR
02:39 76.3 °F /  24.6 °C 66.9 °F /  19.4 °C 29.9in /  1013.1hPa NNW 1.8mph /  2.9km/h   73% 0in /  0.0mm CLR
02:44 76.3 °F /  24.6 °C 66.9 °F /  19.4 °C 29.9in /  1013.1hPa NNW 1.8mph /  2.9km/h 3.5mph /  5.6km/h 73% 0in /  0.0mm CLR
02:49 76.1 °F /  24.5 °C 66.7 °F /  19.3 °C 29.9in /  1012.9hPa NW 1.4mph /  2.3km/h 2.3mph /  3.7km/h 73% 0in /  0.0mm CLR
02:54 75.9 °F /  24.4 °C 66.6 °F /  19.2 °C 29.9in /  1012.9hPa NW 1.4mph /  2.3km/h 2.3mph /  3.7km/h 73% 0in /  0.0mm CLR
02:59 75.9 °F /  24.4 °C 66.6 °F /  19.2 °C 29.9in /  1012.9hPa NW 1.4mph /  2.3km/h   73% 0in /  0.0mm CLR
03:04 75.9 °F /  24.4 °C 66.6 °F /  19.2 °C 29.9in /  1012.7hPa NW 1.4mph /  2.3km/h 3.5mph /  5.6km/h 73% 0in /  0.0mm CLR
03:09 75.9 °F /  24.4 °C 66.6 °F /  19.2 °C 29.9in /  1012.7hPa Calm     73% 0in /  0.0mm CLR
03:14 75.7 °F /  24.3 °C 66.6 °F /  19.2 °C 29.9in /  1012.7hPa Calm     73% 0in /  0.0mm CLR
03:19 75.7 °F /  24.3 °C 66.6 °F /  19.2 °C 29.9in /  1012.7hPa Calm   2mph /  3.2km/h 73% 0in /  0.0mm CLR
03:24 75.7 °F /  24.3 °C 66.6 °F /  19.2 °C 29.9in /  1012.7hPa Calm     73% 0in /  0.0mm CLR
03:29 75.7 °F /  24.3 °C 66.6 °F /  19.2 °C 29.9in /  1012.7hPa Calm     73% 0in /  0.0mm CLR
03:34 75.6 °F /  24.2 °C 66.4 °F /  19.1 °C 29.9in /  1012.7hPa Calm     73% 0in /  0.0mm CLR
03:39 75.6 °F /  24.2 °C 66.4 °F /  19.1 °C 29.9in /  1012.7hPa Calm     73% 0in /  0.0mm CLR
03:44 75.6 °F /  24.2 °C 66.4 °F /  19.1 °C 29.9in /  1012.7hPa Calm     73% 0in /  0.0mm CLR
03:49 75.6 °F /  24.2 °C 66.4 °F /  19.1 °C 29.9in /  1012.6hPa Calm     73% 0in /  0.0mm CLR
03:54 75.6 °F /  24.2 °C 66.4 °F /  19.1 °C 29.9in /  1012.6hPa Calm   1.2mph /  1.9km/h 73% 0in /  0.0mm CLR
03:59 75.6 °F /  24.2 °C 66.4 °F /  19.1 °C 29.9in /  1012.6hPa Calm     73% 0in /  0.0mm CLR
04:04 75.7 °F /  24.3 °C 66.6 °F /  19.2 °C 29.9in /  1012.5hPa Calm   3.6mph /  5.8km/h 73% 0in /  0.0mm CLR
04:09 75.6 °F /  24.2 °C 66.4 °F /  19.1 °C 29.9in /  1012.5hPa NNW 1.8mph /  2.9km/h 2.3mph /  3.7km/h 73% 0in /  0.0mm CLR
04:14 75.6 °F /  24.2 °C 66.4 °F /  19.1 °C 29.9in /  1012.5hPa NNW 1.8mph /  2.9km/h 3.5mph /  5.6km/h 73% 0in /  0.0mm CLR
04:19 75.4 °F /  24.1 °C 66 °F /  18.9 °C 29.9in /  1012.4hPa NW 2mph /  3.2km/h 3.1mph /  5.0km/h 73% 0in /  0.0mm CLR
04:24 75.2 °F /  24.0 °C 66.4 °F /  19.1 °C 29.9in /  1012.4hPa NNE 2mph /  3.2km/h 2.9mph /  4.7km/h 74% 0in /  0.0mm CLR
04:29 75 °F /  23.9 °C 66.2 °F /  19.0 °C 29.9in /  1012.4hPa NNE 1.8mph /  2.9km/h 2.3mph /  3.7km/h 74% 0in /  0.0mm CLR
04:34 74.8 °F /  23.8 °C 66 °F /  18.9 °C 29.9in /  1012.3hPa NW 1.8mph /  2.9km/h 2.3mph /  3.7km/h 74% 0in /  0.0mm CLR
04:39 74.8 °F /  23.8 °C 66 °F /  18.9 °C 29.9in /  1012.3hPa NW 1.4mph /  2.3km/h   74% 0in /  0.0mm CLR
04:44 74.8 °F /  23.8 °C 66 °F /  18.9 °C 29.9in /  1012.3hPa NW 1.4mph /  2.3km/h 2mph /  3.2km/h 74% 0in /  0.0mm CLR
04:49 74.8 °F /  23.8 °C 66 °F /  18.9 °C 29.9in /  1012.3hPa Calm     74% 0in /  0.0mm CLR
04:54 74.8 °F /  23.8 °C 66 °F /  18.9 °C 29.9in /  1012.3hPa Calm   3.5mph /  5.6km/h 74% 0in /  0.0mm CLR
04:59 74.8 °F /  23.8 °C 66 °F /  18.9 °C 29.9in /  1012.3hPa SSE 1.8mph /  2.9km/h 5.8mph /  9.3km/h 74% 0in /  0.0mm CLR
05:04 74.8 °F /  23.8 °C 66.4 °F /  19.1 °C 29.9in /  1012.2hPa South 1.8mph /  2.9km/h 4.6mph /  7.4km/h 75% 0in /  0.0mm CLR
05:09 74.8 °F /  23.8 °C 66.4 °F /  19.1 °C 29.9in /  1012.2hPa SSE 2.9mph /  4.7km/h 4.6mph /  7.4km/h 75% 0in /  0.0mm CLR
05:14 74.8 °F /  23.8 °C 66.4 °F /  19.1 °C 29.9in /  1012.2hPa SSE 2.9mph /  4.7km/h 4.6mph /  7.4km/h 75% 0in /  0.0mm CLR
05:19 74.8 °F /  23.8 °C 66.4 °F /  19.1 °C 29.9in /  1012.1hPa SW 2.4mph /  3.9km/h 4.6mph /  7.4km/h 75% 0in /  0.0mm CLR
05:24 74.8 °F /  23.8 °C 66.4 °F /  19.1 °C 29.9in /  1012.1hPa WSW 2.4mph /  3.9km/h 4.6mph /  7.4km/h 75% 0in /  0.0mm CLR
05:29 74.8 °F /  23.8 °C 66 °F /  18.9 °C 29.9in /  1012.1hPa West 2.4mph /  3.9km/h 4.6mph /  7.4km/h 74% 0in /  0.0mm CLR
05:34 74.8 °F /  23.8 °C 66 °F /  18.9 °C 29.9in /  1012.1hPa WSW 2.4mph /  3.9km/h 4.6mph /  7.4km/h 74% 0in /  0.0mm CLR
05:39 74.8 °F /  23.8 °C 66.4 °F /  19.1 °C 29.9in /  1012.1hPa SSW 2.9mph /  4.7km/h 3.5mph /  5.6km/h 75% 0in /  0.0mm CLR
05:44 74.7 °F /  23.7 °C 66.2 °F /  19.0 °C 29.9in /  1012.1hPa WSW 2.9mph /  4.7km/h 4.6mph /  7.4km/h 75% 0in /  0.0mm CLR
05:49 74.7 °F /  23.7 °C 65.8 °F /  18.8 °C 29.9in /  1012.0hPa SW 2.4mph /  3.9km/h 3.5mph /  5.6km/h 74% 0in /  0.0mm CLR
05:54 74.8 °F /  23.8 °C 66 °F /  18.9 °C 29.9in /  1012.0hPa WSW 2.4mph /  3.9km/h   74% 0in /  0.0mm CLR
05:59 74.8 °F /  23.8 °C 66 °F /  18.9 °C 29.9in /  1012.0hPa WSW 1.4mph /  2.3km/h   74% 0in /  0.0mm CLR
06:04 74.8 °F /  23.8 °C 66 °F /  18.9 °C 29.9in /  1012.0hPa WNW 1.4mph /  2.3km/h 2.3mph /  3.7km/h 74% 0in /  0.0mm CLR
06:09 74.7 °F /  23.7 °C 65.8 °F /  18.8 °C 29.9in /  1012.0hPa Calm   1.4mph /  2.3km/h 74% 0in /  0.0mm CLR
06:14 74.7 °F /  23.7 °C 65.8 °F /  18.8 °C 29.9in /  1012.0hPa Calm   3.1mph /  5.0km/h 74% 0in /  0.0mm CLR
06:19 74.5 °F /  23.6 °C 66 °F /  18.9 °C 29.9in /  1011.7hPa ESE 2mph /  3.2km/h 3.5mph /  5.6km/h 75% 0in /  0.0mm CLR
06:24 74.5 °F /  23.6 °C 66 °F /  18.9 °C 29.9in /  1011.7hPa SE 2mph /  3.2km/h 4.3mph /  6.9km/h 75% 0in /  0.0mm CLR
06:29 74.1 °F /  23.4 °C 65.7 °F /  18.7 °C 29.9in /  1011.7hPa SSE 2.4mph /  3.9km/h 3.5mph /  5.6km/h 75% 0in /  0.0mm CLR
06:34 74.1 °F /  23.4 °C 65.7 °F /  18.7 °C 29.9in /  1011.9hPa SSW 2.4mph /  3.9km/h 4.6mph /  7.4km/h 75% 0in /  0.0mm CLR
06:39 74.1 °F /  23.4 °C 65.7 °F /  18.7 °C 29.9in /  1011.9hPa South 2.9mph /  4.7km/h 4.6mph /  7.4km/h 75% 0in /  0.0mm CLR
06:44 74.1 °F /  23.4 °C 65.7 °F /  18.7 °C 29.9in /  1011.9hPa SSE 2.9mph /  4.7km/h 5.8mph /  9.3km/h 75% 0in /  0.0mm CLR
06:49 74.1 °F /  23.4 °C 65.7 °F /  18.7 °C 29.9in /  1012.0hPa South 3.6mph /  5.8km/h 4.6mph /  7.4km/h 75% 0in /  0.0mm CLR
06:54 74.1 °F /  23.4 °C 65.7 °F /  18.7 °C 29.9in /  1012.0hPa South 3.6mph /  5.8km/h 4.6mph /  7.4km/h 75% 0in /  0.0mm CLR
06:59 74.1 °F /  23.4 °C 65.7 °F /  18.7 °C 29.9in /  1012.0hPa SW 2.9mph /  4.7km/h 4.6mph /  7.4km/h 75% 0in /  0.0mm CLR
07:04 74.1 °F /  23.4 °C 65.7 °F /  18.7 °C 29.9in /  1012.0hPa SSW 2.9mph /  4.7km/h 6.9mph /  11.1km/h 75% 0in /  0.0mm CLR
07:09 74.3 °F /  23.5 °C 65.8 °F /  18.8 °C 29.9in /  1012.0hPa SSW 3.6mph /  5.8km/h 5.2mph /  8.4km/h 75% 0in /  0.0mm CLR
07:14 74.3 °F /  23.5 °C 65.8 °F /  18.8 °C 29.9in /  1012.0hPa SSW 3.6mph /  5.8km/h 4.6mph /  7.4km/h 75% 0in /  0.0mm CLR
07:19 74.3 °F /  23.5 °C 65.8 °F /  18.8 °C 29.9in /  1012.1hPa WSW 2.9mph /  4.7km/h 5.2mph /  8.4km/h 75% 0in /  0.0mm CLR
07:24 74.1 °F /  23.4 °C 65.7 °F /  18.7 °C 29.9in /  1012.1hPa WSW 2.9mph /  4.7km/h 5.8mph /  9.3km/h 75% 0in /  0.0mm CLR
07:29 74.1 °F /  23.4 °C 65.7 °F /  18.7 °C 29.9in /  1012.1hPa SW 3.6mph /  5.8km/h 6.9mph /  11.1km/h 75% 0in /  0.0mm CLR
07:34 74.1 °F /  23.4 °C 65.7 °F /  18.7 °C 29.9in /  1012.2hPa SW 3.6mph /  5.8km/h 4.6mph /  7.4km/h 75% 0in /  0.0mm CLR
07:39 74.3 °F /  23.5 °C 65.5 °F /  18.6 °C 29.9in /  1012.2hPa West 3.6mph /  5.8km/h 4.6mph /  7.4km/h 74% 0in /  0.0mm CLR
07:44 74.5 °F /  23.6 °C 65.7 °F /  18.7 °C 29.9in /  1012.2hPa WNW 3.6mph /  5.8km/h 4.6mph /  7.4km/h 74% 0in /  0.0mm CLR
07:49 74.5 °F /  23.6 °C 65.3 °F /  18.5 °C 29.9in /  1012.3hPa WSW 2.9mph /  4.7km/h 4.6mph /  7.4km/h 73% 0in /  0.0mm CLR
07:54 74.5 °F /  23.6 °C 65.3 °F /  18.5 °C 29.9in /  1012.3hPa WSW 2.9mph /  4.7km/h 5.8mph /  9.3km/h 73% 0in /  0.0mm CLR
07:59 74.5 °F /  23.6 °C 65.3 °F /  18.5 °C 29.9in /  1012.3hPa SW 3.6mph /  5.8km/h 4.6mph /  7.4km/h 73% 0in /  0.0mm CLR
08:04 74.5 °F /  23.6 °C 65.3 °F /  18.5 °C 29.9in /  1012.5hPa WSW 3.6mph /  5.8km/h 4.6mph /  7.4km/h 73% 0in /  0.0mm CLR
08:09 74.7 °F /  23.7 °C 64.9 °F /  18.3 °C 29.9in /  1012.5hPa SW 2.9mph /  4.7km/h 5.8mph /  9.3km/h 72% 0in /  0.0mm CLR
08:14 74.8 °F /  23.8 °C 65.1 °F /  18.4 °C 29.9in /  1012.5hPa SSW 2.9mph /  4.7km/h 4.6mph /  7.4km/h 72% 0in /  0.0mm CLR
08:19 75 °F /  23.9 °C 64.9 °F /  18.3 °C 29.9in /  1012.5hPa SW 2.9mph /  4.7km/h 5.2mph /  8.4km/h 71% 0in /  0.0mm CLR
08:24 75.2 °F /  24.0 °C 64.8 °F /  18.2 °C 29.9in /  1012.5hPa WSW 2.9mph /  4.7km/h 4.6mph /  7.4km/h 70% 0in /  0.0mm CLR
08:29 75.4 °F /  24.1 °C 64.9 °F /  18.3 °C 29.9in /  1012.5hPa West 3.1mph /  5.0km/h 4.6mph /  7.4km/h 70% 0in /  0.0mm CLR
08:34 75.4 °F /  24.1 °C 64.9 °F /  18.3 °C 29.9in /  1012.5hPa WNW 3.1mph /  5.0km/h 4.6mph /  7.4km/h 70% 0in /  0.0mm CLR
08:39 75.6 °F /  24.2 °C 64.2 °F /  17.9 °C 29.9in /  1012.5hPa WNW 3.1mph /  5.0km/h 5.8mph /  9.3km/h 68% 0in /  0.0mm CLR
08:44 75.7 °F /  24.3 °C 64.8 °F /  18.2 °C 29.9in /  1012.5hPa West 3.1mph /  5.0km/h 4.6mph /  7.4km/h 69% 0in /  0.0mm CLR
08:49 75.7 °F /  24.3 °C 64.8 °F /  18.2 °C 29.9in /  1012.5hPa West 2.9mph /  4.7km/h 4.6mph /  7.4km/h 69% 0in /  0.0mm CLR
08:54 75.9 °F /  24.4 °C 64.6 °F /  18.1 °C 29.9in /  1012.5hPa WNW 2.9mph /  4.7km/h 4.6mph /  7.4km/h 68% 0in /  0.0mm CLR
08:59 76.3 °F /  24.6 °C 64.9 °F /  18.3 °C 29.9in /  1012.5hPa West 2.4mph /  3.9km/h 4.6mph /  7.4km/h 68% 0in /  0.0mm CLR
09:04 76.5 °F /  24.7 °C 64.8 °F /  18.2 °C 29.9in /  1012.5hPa SSW 2.4mph /  3.9km/h 4.6mph /  7.4km/h 67% 0in /  0.0mm CLR
09:09 76.8 °F /  24.9 °C 64.9 °F /  18.3 °C 29.9in /  1012.5hPa South 2.4mph /  3.9km/h 4.6mph /  7.4km/h 67% 0in /  0.0mm CLR
09:14 77.2 °F /  25.1 °C 64.9 °F /  18.3 °C 29.9in /  1012.5hPa WSW 2.4mph /  3.9km/h 3.6mph /  5.8km/h 66% 0in /  0.0mm CLR
09:19 77.5 °F /  25.3 °C 64.8 °F /  18.2 °C 29.9in /  1012.6hPa SSW 2.4mph /  3.9km/h 5.8mph /  9.3km/h 65% 0in /  0.0mm CLR
09:24 77.7 °F /  25.4 °C 64.6 °F /  18.1 °C 29.9in /  1012.6hPa SW 2.4mph /  3.9km/h 4.7mph /  7.6km/h 64% 0in /  0.0mm CLR
09:29 78.1 °F /  25.6 °C 64.6 °F /  18.1 °C 29.9in /  1012.6hPa NW 2.4mph /  3.9km/h 4.3mph /  6.9km/h 63% 0in /  0.0mm CLR
09:34 78.3 °F /  25.7 °C 64.6 °F /  18.1 °C 29.9in /  1012.5hPa West 2.4mph /  3.9km/h 4.7mph /  7.6km/h 63% 0in /  0.0mm CLR
09:39 78.4 °F /  25.8 °C 64.8 °F /  18.2 °C 29.9in /  1012.5hPa West 2.9mph /  4.7km/h 3.5mph /  5.6km/h 63% 0in /  0.0mm CLR
09:44 78.6 °F /  25.9 °C 64 °F /  17.8 °C 29.9in /  1012.5hPa West 2.9mph /  4.7km/h 6.9mph /  11.1km/h 61% 0in /  0.0mm CLR
09:49 78.8 °F /  26.0 °C 63.7 °F /  17.6 °C 29.9in /  1012.6hPa SSW 3.1mph /  5.0km/h 5.8mph /  9.3km/h 60% 0in /  0.0mm CLR
09:54 79.3 °F /  26.3 °C 64.8 °F /  18.2 °C 29.9in /  1012.6hPa SSE 3.1mph /  5.0km/h 4.6mph /  7.4km/h 61% 0in /  0.0mm CLR
09:59 79.3 °F /  26.3 °C 64.8 °F /  18.2 °C 29.9in /  1012.6hPa South 3.1mph /  5.0km/h 4.6mph /  7.4km/h 61% 0in /  0.0mm CLR
10:04 79.3 °F /  26.3 °C 64.8 °F /  18.2 °C 29.9in /  1012.5hPa SSE 3.1mph /  5.0km/h 6.9mph /  11.1km/h 61% 0in /  0.0mm CLR
10:09 79.5 °F /  26.4 °C 64.9 °F /  18.3 °C 29.9in /  1012.5hPa SE 2.9mph /  4.7km/h 4.6mph /  7.4km/h 61% 0in /  0.0mm CLR
10:14 80.1 °F /  26.7 °C 64.9 °F /  18.3 °C 29.9in /  1012.5hPa SSE 2.9mph /  4.7km/h 3.5mph /  5.6km/h 60% 0in /  0.0mm CLR
10:19 80.4 °F /  26.9 °C 64.2 °F /  17.9 °C 29.9in /  1012.6hPa SSE 2.9mph /  4.7km/h 4.6mph /  7.4km/h 58% 0in /  0.0mm CLR
10:24 80.8 °F /  27.1 °C 63.7 °F /  17.6 °C 29.9in /  1012.6hPa ESE 2.9mph /  4.7km/h 6.2mph /  10.0km/h 56% 0in /  0.0mm CLR
10:29 81 °F /  27.2 °C 63.9 °F /  17.7 °C 29.9in /  1012.6hPa ENE 4.3mph /  6.9km/h 5.8mph /  9.3km/h 56% 0in /  0.0mm CLR
10:34 81 °F /  27.2 °C 62.8 °F /  17.1 °C 29.9in /  1012.7hPa SW 4.3mph /  6.9km/h 3.5mph /  5.6km/h 54% 0in /  0.0mm CLR
10:39 81.7 °F /  27.6 °C 63 °F /  17.2 °C 29.9in /  1012.7hPa ESE 2mph /  3.2km/h 5.9mph /  9.5km/h 53% 0in /  0.0mm CLR
10:44 82.2 °F /  27.9 °C 61.7 °F /  16.5 °C 29.9in /  1012.7hPa East 2mph /  3.2km/h 4.7mph /  7.6km/h 50% 0in /  0.0mm CLR
10:49 82.2 °F /  27.9 °C 61.2 °F /  16.2 °C 29.9in /  1012.7hPa NE 4.3mph /  6.9km/h 5.8mph /  9.3km/h 49% 0in /  0.0mm CLR
10:54 82.6 °F /  28.1 °C 62.1 °F /  16.7 °C 29.9in /  1012.7hPa ENE 4.3mph /  6.9km/h 5.8mph /  9.3km/h 50% 0in /  0.0mm CLR
10:59 82.9 °F /  28.3 °C 61.9 °F /  16.6 °C 29.9in /  1012.7hPa ESE 3.6mph /  5.8km/h 10.4mph /  16.7km/h 49% 0in /  0.0mm CLR
11:04 82.9 °F /  28.3 °C 61.2 °F /  16.2 °C 29.9in /  1012.6hPa ESE 3.6mph /  5.8km/h 9.2mph /  14.8km/h 48% 0in /  0.0mm CLR
11:09 82.9 °F /  28.3 °C 60.6 °F /  15.9 °C 29.9in /  1012.6hPa ENE 5.4mph /  8.7km/h 4.7mph /  7.6km/h 47% 0in /  0.0mm CLR
11:14 83.1 °F /  28.4 °C 60.3 °F /  15.7 °C 29.9in /  1012.6hPa NNE 5.4mph /  8.7km/h 5.8mph /  9.3km/h 46% 0in /  0.0mm CLR
11:19 83.7 °F /  28.7 °C 60.6 °F /  15.9 °C 29.9in /  1012.6hPa ESE 3.6mph /  5.8km/h 4.6mph /  7.4km/h 46% 0in /  0.0mm CLR
11:24 84.4 °F /  29.1 °C 60.6 °F /  15.9 °C 29.9in /  1012.6hPa NNW 3.6mph /  5.8km/h 4.6mph /  7.4km/h 45% 0in /  0.0mm CLR
11:29 84.7 °F /  29.3 °C 60.4 °F /  15.8 °C 29.9in /  1012.6hPa East 4mph /  6.4km/h 6.9mph /  11.1km/h 44% 0in /  0.0mm CLR
11:34 84.6 °F /  29.2 °C 60.3 °F /  15.7 °C 29.9in /  1012.6hPa NE 4mph /  6.4km/h 10.7mph /  17.2km/h 44% 0in /  0.0mm CLR
11:39 84.4 °F /  29.1 °C 60.1 °F /  15.6 °C 29.9in /  1012.6hPa NNW 5.9mph /  9.5km/h 5.8mph /  9.3km/h 44% 0in /  0.0mm CLR
11:44 84.6 °F /  29.2 °C 59.5 °F /  15.3 °C 29.9in /  1012.6hPa East 5.9mph /  9.5km/h 4.6mph /  7.4km/h 43% 0in /  0.0mm CLR
11:49 85.3 °F /  29.6 °C 58.3 °F /  14.6 °C 29.9in /  1012.5hPa NE 3.1mph /  5.0km/h 8.7mph /  14.0km/h 40% 0in /  0.0mm CLR
11:54 85.6 °F /  29.8 °C 57.7 °F /  14.3 °C 29.9in /  1012.5hPa NNE 3.1mph /  5.0km/h 6.9mph /  11.1km/h 39% 0in /  0.0mm CLR
11:59 85.8 °F /  29.9 °C 57.9 °F /  14.4 °C 29.9in /  1012.5hPa ENE 4.7mph /  7.6km/h 11.8mph /  19.0km/h 39% 0in /  0.0mm CLR
12:04 85.6 °F /  29.8 °C 58.5 °F /  14.7 °C 29.9in /  1012.4hPa ENE 4.7mph /  7.6km/h 8.7mph /  14.0km/h 40% 0in /  0.0mm CLR
12:09 86.2 °F /  30.1 °C 59.7 °F /  15.4 °C 29.9in /  1012.4hPa NNE 6.4mph /  10.3km/h 6.9mph /  11.1km/h 41% 0in /  0.0mm CLR
12:14 86 °F /  30.0 °C 58.3 °F /  14.6 °C 29.9in /  1012.4hPa East 6.4mph /  10.3km/h 12.7mph /  20.4km/h 39% 0in /  0.0mm CLR
12:19 86.5 °F /  30.3 °C 59.4 °F /  15.2 °C 29.9in /  1012.3hPa NE 6.9mph /  11.1km/h 11.2mph /  18.0km/h 40% 0in /  0.0mm CLR
12:24 86.5 °F /  30.3 °C 60.6 °F /  15.9 °C 29.9in /  1012.3hPa ENE 6.9mph /  11.1km/h 11.5mph /  18.5km/h 42% 0in /  0.0mm CLR
12:29 86.4 °F /  30.2 °C 60.6 °F /  15.9 °C 29.9in /  1012.3hPa NE 8.1mph /  13.0km/h 10.2mph /  16.4km/h 42% 0in /  0.0mm CLR
12:34 86.4 °F /  30.2 °C 59.2 °F /  15.1 °C 29.9in /  1012.4hPa NE 8.1mph /  13.0km/h 13.8mph /  22.2km/h 40% 0in /  0.0mm CLR
12:39 86.4 °F /  30.2 °C 58.5 °F /  14.7 °C 29.9in /  1012.4hPa North 8.5mph /  13.7km/h 14.7mph /  23.7km/h 39% 0in /  0.0mm CLR
12:44 86.5 °F /  30.3 °C 57.2 °F /  14.0 °C 29.9in /  1012.4hPa ENE 8.5mph /  13.7km/h 17.3mph /  27.8km/h 37% 0in /  0.0mm CLR
12:49 86.7 °F /  30.4 °C 58.1 °F /  14.5 °C 29.9in /  1012.2hPa NE 10mph /  16.1km/h 11.5mph /  18.5km/h 38% 0in /  0.0mm CLR
12:54 86.9 °F /  30.5 °C 59 °F /  15.0 °C 29.9in /  1012.2hPa ENE 10mph /  16.1km/h 11.5mph /  18.5km/h 39% 0in /  0.0mm CLR
12:59 86.7 °F /  30.4 °C 60.3 °F /  15.7 °C 29.9in /  1012.2hPa NNE 8.5mph /  13.7km/h 13mph /  20.9km/h 41% 0in /  0.0mm CLR
13:04 86.7 °F /  30.4 °C 61 °F /  16.1 °C 29.9in /  1012.0hPa East 8.5mph /  13.7km/h 12.7mph /  20.4km/h 42% 0in /  0.0mm CLR
13:09 86.7 °F /  30.4 °C 61 °F /  16.1 °C 29.9in /  1012.0hPa ENE 8.7mph /  14.0km/h 12.7mph /  20.4km/h 42% 0in /  0.0mm CLR
13:14 86.7 °F /  30.4 °C 61.5 °F /  16.4 °C 29.9in /  1012.0hPa NE 8.7mph /  14.0km/h 12.5mph /  20.1km/h 43% 0in /  0.0mm CLR
13:19 87.3 °F /  30.7 °C 61.3 °F /  16.3 °C 29.9in /  1011.9hPa ENE 8.7mph /  14.0km/h 13.8mph /  22.2km/h 42% 0in /  0.0mm CLR
13:24 87.1 °F /  30.6 °C 61.9 °F /  16.6 °C 29.9in /  1011.9hPa NE 8.7mph /  14.0km/h 16.8mph /  27.0km/h 43% 0in /  0.0mm CLR
13:29 86.7 °F /  30.4 °C 61.5 °F /  16.4 °C 29.9in /  1011.9hPa NE 11.4mph /  18.3km/h 21.9mph /  35.2km/h 43% 0in /  0.0mm CLR
13:34 87.1 °F /  30.6 °C 61.2 °F /  16.2 °C 29.9in /  1011.6hPa East 11.4mph /  18.3km/h 10.4mph /  16.7km/h 42% 0in /  0.0mm CLR
13:39 87.4 °F /  30.8 °C 61.5 °F /  16.4 °C 29.9in /  1011.6hPa NNE 10mph /  16.1km/h 17.3mph /  27.8km/h 42% 0in /  0.0mm CLR
13:44 87.6 °F /  30.9 °C 61.7 °F /  16.5 °C 29.9in /  1011.6hPa NNE 10mph /  16.1km/h 12.7mph /  20.4km/h 42% 0in /  0.0mm CLR
13:49 88 °F /  31.1 °C 62.1 °F /  16.7 °C 29.9in /  1011.6hPa ENE 9.2mph /  14.8km/h 11.5mph /  18.5km/h 42% 0in /  0.0mm CLR
13:54 88 °F /  31.1 °C 61.3 °F /  16.3 °C 29.9in /  1011.6hPa ENE 9.2mph /  14.8km/h 17.3mph /  27.8km/h 41% 0in /  0.0mm CLR
13:59 87.6 °F /  30.9 °C 61 °F /  16.1 °C 29.9in /  1011.6hPa NNE 10.7mph /  17.2km/h 20.7mph /  33.3km/h 41% 0in /  0.0mm CLR
14:04 88 °F /  31.1 °C 61.3 °F /  16.3 °C 29.9in /  1011.4hPa ENE 10.7mph /  17.2km/h 17.3mph /  27.8km/h 41% 0in /  0.0mm CLR
14:09 88 °F /  31.1 °C 60.6 °F /  15.9 °C 29.9in /  1011.4hPa NE 10mph /  16.1km/h 23mph /  37.0km/h 40% 0in /  0.0mm CLR
14:14 88 °F /  31.1 °C 61.3 °F /  16.3 °C 29.9in /  1011.4hPa NE 10mph /  16.1km/h 18.4mph /  29.6km/h 41% 0in /  0.0mm CLR
14:19 87.6 °F /  30.9 °C 60.3 °F /  15.7 °C 29.9in /  1011.4hPa NE 11.8mph /  19.0km/h 17.3mph /  27.8km/h 40% 0in /  0.0mm CLR
14:24 87.6 °F /  30.9 °C 61.7 °F /  16.5 °C 29.9in /  1011.4hPa NE 11.8mph /  19.0km/h 9.2mph /  14.8km/h 42% 0in /  0.0mm CLR
14:29 87.8 °F /  31.0 °C 61.2 °F /  16.2 °C 29.9in /  1011.4hPa NE 10.2mph /  16.4km/h 13.8mph /  22.2km/h 41% 0in /  0.0mm CLR
14:34 88 °F /  31.1 °C 61.3 °F /  16.3 °C 29.9in /  1011.3hPa NE 10.2mph /  16.4km/h 18.4mph /  29.6km/h 41% 0in /  0.0mm CLR
14:39 87.4 °F /  30.8 °C 60.3 °F /  15.7 °C 29.9in /  1011.3hPa NE 11.4mph /  18.3km/h 12.7mph /  20.4km/h 40% 0in /  0.0mm CLR
14:44 88 °F /  31.1 °C 59.9 °F /  15.5 °C 29.9in /  1011.3hPa NE 11.4mph /  18.3km/h 15.9mph /  25.6km/h 39% 0in /  0.0mm CLR
14:49 88 °F /  31.1 °C 60.6 °F /  15.9 °C 29.9in /  1011.2hPa NE 9.7mph /  15.6km/h 13.8mph /  22.2km/h 40% 0in /  0.0mm CLR
14:54 87.4 °F /  30.8 °C 60.3 °F /  15.7 °C 29.9in /  1011.2hPa ENE 9.7mph /  15.6km/h 17.3mph /  27.8km/h 40% 0in /  0.0mm CLR
14:59 88 °F /  31.1 °C 59.9 °F /  15.5 °C 29.9in /  1011.2hPa NNE 10.2mph /  16.4km/h 15.6mph /  25.1km/h 39% 0in /  0.0mm CLR
15:04 88.2 °F /  31.2 °C 60.1 °F /  15.6 °C 29.9in /  1011.1hPa NE 10.2mph /  16.4km/h 12.7mph /  20.4km/h 39% 0in /  0.0mm CLR
15:09 87.8 °F /  31.0 °C 60.4 °F /  15.8 °C 29.9in /  1011.1hPa NE 10mph /  16.1km/h 18.4mph /  29.6km/h 40% 0in /  0.0mm CLR
15:14 87.6 °F /  30.9 °C 58.8 °F /  14.9 °C 29.9in /  1011.1hPa NNE 10mph /  16.1km/h 18.4mph /  29.6km/h 38% 0in /  0.0mm CLR
15:19 88 °F /  31.1 °C 60.6 °F /  15.9 °C 29.9in /  1010.9hPa NE 11.4mph /  18.3km/h 15.9mph /  25.6km/h 40% 0in /  0.0mm CLR
15:24 88.5 °F /  31.4 °C 59.7 °F /  15.4 °C 29.9in /  1010.9hPa NNE 11.4mph /  18.3km/h 13.8mph /  22.2km/h 38% 0in /  0.0mm CLR
15:29 88 °F /  31.1 °C 60.6 °F /  15.9 °C 29.9in /  1010.9hPa NE 9.7mph /  15.6km/h 19.6mph /  31.5km/h 40% 0in /  0.0mm CLR
15:34 88 °F /  31.1 °C 58.5 °F /  14.7 °C 29.9in /  1010.8hPa NE 9.7mph /  15.6km/h 17.3mph /  27.8km/h 37% 0in /  0.0mm CLR
15:39 88.2 °F /  31.2 °C 59.4 °F /  15.2 °C 29.9in /  1010.8hPa ESE 10.2mph /  16.4km/h 18.4mph /  29.6km/h 38% 0in /  0.0mm CLR
15:44 88.3 °F /  31.3 °C 60.3 °F /  15.7 °C 29.9in /  1010.8hPa NNE 10.2mph /  16.4km/h 16.3mph /  26.2km/h 39% 0in /  0.0mm CLR
15:49 88.5 °F /  31.4 °C 61.2 °F /  16.2 °C 29.8in /  1010.7hPa ENE 9.2mph /  14.8km/h 17.3mph /  27.8km/h 40% 0in /  0.0mm CLR
15:54 88.3 °F /  31.3 °C 60.3 °F /  15.7 °C 29.8in /  1010.7hPa NE 9.2mph /  14.8km/h 18.4mph /  29.6km/h 39% 0in /  0.0mm CLR
15:59 87.8 °F /  31.0 °C 59 °F /  15.0 °C 29.8in /  1010.7hPa NNE 12.5mph /  20.1km/h 21.9mph /  35.2km/h 38% 0in /  0.0mm CLR
16:04 87.8 °F /  31.0 °C 60.4 °F /  15.8 °C 29.8in /  1010.6hPa NE 12.5mph /  20.1km/h 20.7mph /  33.3km/h 40% 0in /  0.0mm CLR
16:09 87.6 °F /  30.9 °C 61 °F /  16.1 °C 29.8in /  1010.6hPa NNE 13.5mph /  21.7km/h 17.3mph /  27.8km/h 41% 0in /  0.0mm CLR
16:14 87.8 °F /  31.0 °C 61.9 °F /  16.6 °C 29.8in /  1010.6hPa NNE 13.5mph /  21.7km/h 15mph /  24.1km/h 42% 0in /  0.0mm CLR
16:19 88.3 °F /  31.3 °C 61 °F /  16.1 °C 29.8in /  1010.4hPa ENE 11.4mph /  18.3km/h 16.8mph /  27.0km/h 40% 0in /  0.0mm CLR
16:24 88 °F /  31.1 °C 62.1 °F /  16.7 °C 29.8in /  1010.4hPa ENE 11.4mph /  18.3km/h 16.3mph /  26.2km/h 42% 0in /  0.0mm CLR
16:29 87.8 °F /  31.0 °C 61.9 °F /  16.6 °C 29.8in /  1010.4hPa NE 11.8mph /  19.0km/h 16.1mph /  25.9km/h 42% 0in /  0.0mm CLR
16:34 88.2 °F /  31.2 °C 61.5 °F /  16.4 °C 29.8in /  1010.2hPa NE 11.8mph /  19.0km/h 18.4mph /  29.6km/h 41% 0in /  0.0mm CLR
16:39 88.3 °F /  31.3 °C 60.3 °F /  15.7 °C 29.8in /  1010.2hPa ENE 10.2mph /  16.4km/h 16.1mph /  25.9km/h 39% 0in /  0.0mm CLR
16:44 88.3 °F /  31.3 °C 59.5 °F /  15.3 °C 29.8in /  1010.2hPa NE 10.2mph /  16.4km/h 13.8mph /  22.2km/h 38% 0in /  0.0mm CLR
16:49 88.7 °F /  31.5 °C 59.7 °F /  15.4 °C 29.8in /  1010.3hPa NE 9.2mph /  14.8km/h 15mph /  24.1km/h 38% 0in /  0.0mm CLR
16:54 88 °F /  31.1 °C 59.2 °F /  15.1 °C 29.8in /  1010.3hPa East 9.2mph /  14.8km/h 14mph /  22.5km/h 38% 0in /  0.0mm CLR
16:59 88.3 °F /  31.3 °C 59.5 °F /  15.3 °C 29.8in /  1010.3hPa ENE 10.7mph /  17.2km/h 13.8mph /  22.2km/h 38% 0in /  0.0mm CLR
17:04 88.3 °F /  31.3 °C 58.8 °F /  14.9 °C 29.8in /  1010.1hPa ENE 10.7mph /  17.2km/h 19.6mph /  31.5km/h 37% 0in /  0.0mm CLR
17:09 88.3 °F /  31.3 °C 59.5 °F /  15.3 °C 29.8in /  1010.1hPa NE 10mph /  16.1km/h 16.3mph /  26.2km/h 38% 0in /  0.0mm CLR
17:14 88.3 °F /  31.3 °C 59.5 °F /  15.3 °C 29.8in /  1010.1hPa NE 10mph /  16.1km/h 16.3mph /  26.2km/h 38% 0in /  0.0mm CLR
17:19 88.2 °F /  31.2 °C 59.4 °F /  15.2 °C 29.8in /  1010.1hPa NNE 10mph /  16.1km/h 15mph /  24.1km/h 38% 0in /  0.0mm CLR
17:24 88.3 °F /  31.3 °C 59.5 °F /  15.3 °C 29.8in /  1010.1hPa NE 10mph /  16.1km/h 10.4mph /  16.7km/h 38% 0in /  0.0mm CLR
17:29 88.3 °F /  31.3 °C 59.5 °F /  15.3 °C 29.8in /  1010.1hPa NE 9.2mph /  14.8km/h 13.8mph /  22.2km/h 38% 0in /  0.0mm CLR
17:34 88.2 °F /  31.2 °C 59.4 °F /  15.2 °C 29.8in /  1009.8hPa NE 9.2mph /  14.8km/h 20.7mph /  33.3km/h 38% 0in /  0.0mm CLR
17:39 88.3 °F /  31.3 °C 58.8 °F /  14.9 °C 29.8in /  1009.8hPa North 9.2mph /  14.8km/h 18.4mph /  29.6km/h 37% 0in /  0.0mm CLR
17:44 88.3 °F /  31.3 °C 57.2 °F /  14.0 °C 29.8in /  1009.8hPa ENE 9.2mph /  14.8km/h 15mph /  24.1km/h 35% 0in /  0.0mm CLR
17:49 88.3 °F /  31.3 °C 58.8 °F /  14.9 °C 29.8in /  1009.8hPa East 9.7mph /  15.6km/h 15.2mph /  24.5km/h 37% 0in /  0.0mm CLR
17:54 88.2 °F /  31.2 °C 57.7 °F /  14.3 °C 29.8in /  1009.8hPa NE 9.7mph /  15.6km/h 10.4mph /  16.7km/h 36% 0in /  0.0mm CLR
17:59 88.2 °F /  31.2 °C 57 °F /  13.9 °C 29.8in /  1009.8hPa NE 10.7mph /  17.2km/h 18.4mph /  29.6km/h 35% 0in /  0.0mm CLR
18:04 88.3 °F /  31.3 °C 58.8 °F /  14.9 °C 29.8in /  1009.6hPa ENE 10.7mph /  17.2km/h 12.5mph /  20.1km/h 37% 0in /  0.0mm CLR
18:09 88.5 °F /  31.4 °C 58.3 °F /  14.6 °C 29.8in /  1009.6hPa NE 10.2mph /  16.4km/h 17.3mph /  27.8km/h 36% 0in /  0.0mm CLR
18:14 88.3 °F /  31.3 °C 57.2 °F /  14.0 °C 29.8in /  1009.6hPa NE 10.2mph /  16.4km/h 18.4mph /  29.6km/h 35% 0in /  0.0mm CLR
18:19 88.2 °F /  31.2 °C 59.4 °F /  15.2 °C 29.8in /  1009.7hPa East 11.2mph /  18.0km/h 17.3mph /  27.8km/h 38% 0in /  0.0mm CLR
18:24 88 °F /  31.1 °C 59.2 °F /  15.1 °C 29.8in /  1009.7hPa NE 11.2mph /  18.0km/h 18.4mph /  29.6km/h 38% 0in /  0.0mm CLR
18:29 88 °F /  31.1 °C 58.5 °F /  14.7 °C 29.8in /  1009.7hPa NNE 11.2mph /  18.0km/h 16.1mph /  25.9km/h 37% 0in /  0.0mm CLR
18:34 87.6 °F /  30.9 °C 58.8 °F /  14.9 °C 29.8in /  1009.7hPa ENE 11.2mph /  18.0km/h 17.3mph /  27.8km/h 38% 0in /  0.0mm CLR
18:39 87.3 °F /  30.7 °C 58.6 °F /  14.8 °C 29.8in /  1009.7hPa ENE 12.5mph /  20.1km/h 17.3mph /  27.8km/h 38% 0in /  0.0mm CLR
18:44 87.4 °F /  30.8 °C 59.4 °F /  15.2 °C 29.8in /  1009.7hPa ENE 12.5mph /  20.1km/h 13.8mph /  22.2km/h 39% 0in /  0.0mm CLR
18:49 87.4 °F /  30.8 °C 58.6 °F /  14.8 °C 29.8in /  1009.9hPa ENE 10.2mph /  16.4km/h 12.7mph /  20.4km/h 38% 0in /  0.0mm CLR
18:54 87.4 °F /  30.8 °C 60.3 °F /  15.7 °C 29.8in /  1009.9hPa North 10.2mph /  16.4km/h 10.4mph /  16.7km/h 40% 0in /  0.0mm CLR
18:59 87.4 °F /  30.8 °C 59.4 °F /  15.2 °C 29.8in /  1009.9hPa NE 8.1mph /  13.0km/h 12.7mph /  20.4km/h 39% 0in /  0.0mm CLR
19:04 86.9 °F /  30.5 °C 60.4 °F /  15.8 °C 29.8in /  1009.9hPa NE 8.1mph /  13.0km/h 15mph /  24.1km/h 41% 0in /  0.0mm CLR
19:09 86.5 °F /  30.3 °C 59.4 °F /  15.2 °C 29.8in /  1009.9hPa NE 10.2mph /  16.4km/h 17.3mph /  27.8km/h 40% 0in /  0.0mm CLR
19:14 86.5 °F /  30.3 °C 60.1 °F /  15.6 °C 29.8in /  1009.9hPa NNE 10.2mph /  16.4km/h 11.5mph /  18.5km/h 41% 0in /  0.0mm CLR
19:19 86.4 °F /  30.2 °C 60.6 °F /  15.9 °C 29.8in /  1010.0hPa ENE 9.7mph /  15.6km/h 11.5mph /  18.5km/h 42% 0in /  0.0mm CLR
19:24 85.8 °F /  29.9 °C 60.6 °F /  15.9 °C 29.8in /  1010.0hPa ENE 9.7mph /  15.6km/h 16.1mph /  25.9km/h 43% 0in /  0.0mm CLR
19:29 85.6 °F /  29.8 °C 61.2 °F /  16.2 °C 29.8in /  1010.0hPa ENE 8.1mph /  13.0km/h 13.8mph /  22.2km/h 44% 0in /  0.0mm CLR
19:34 85.5 °F /  29.7 °C 60.4 °F /  15.8 °C 29.8in /  1010.2hPa East 8.1mph /  13.0km/h 11.5mph /  18.5km/h 43% 0in /  0.0mm CLR
19:39 85.5 °F /  29.7 °C 60.4 °F /  15.8 °C 29.8in /  1010.2hPa ENE 6.9mph /  11.1km/h 8.1mph /  13.0km/h 43% 0in /  0.0mm CLR
19:44 85.5 °F /  29.7 °C 61.2 °F /  16.2 °C 29.8in /  1010.2hPa NE 6.9mph /  11.1km/h 8.1mph /  13.0km/h 44% 0in /  0.0mm CLR
19:49 85.3 °F /  29.6 °C 61 °F /  16.1 °C 29.8in /  1010.2hPa ESE 4mph /  6.4km/h 5.2mph /  8.4km/h 44% 0in /  0.0mm CLR
19:54 85.3 °F /  29.6 °C 61.5 °F /  16.4 °C 29.8in /  1010.2hPa ESE 4mph /  6.4km/h 5.9mph /  9.5km/h 45% 0in /  0.0mm CLR
19:59 84.9 °F /  29.4 °C 60.6 °F /  15.9 °C 29.8in /  1010.2hPa SSE 5.2mph /  8.4km/h 6.9mph /  11.1km/h 44% 0in /  0.0mm CLR
20:04 85.1 °F /  29.5 °C 61.3 °F /  16.3 °C 29.8in /  1010.5hPa ESE 5.2mph /  8.4km/h 4.7mph /  7.6km/h 45% 0in /  0.0mm CLR
20:09 85.1 °F /  29.5 °C 60.6 °F /  15.9 °C 29.8in /  1010.5hPa East 4.7mph /  7.6km/h 9.2mph /  14.8km/h 44% 0in /  0.0mm CLR
20:14 84.7 °F /  29.3 °C 59.7 °F /  15.4 °C 29.8in /  1010.5hPa ESE 4.7mph /  7.6km/h 11.8mph /  19.0km/h 43% 0in /  0.0mm CLR
20:19 84.7 °F /  29.3 °C 60.4 °F /  15.8 °C 29.8in /  1010.7hPa ESE 6.4mph /  10.3km/h 10.4mph /  16.7km/h 44% 0in /  0.0mm CLR
20:24 84.4 °F /  29.1 °C 61.3 °F /  16.3 °C 29.8in /  1010.7hPa SE 6.4mph /  10.3km/h 9.2mph /  14.8km/h 46% 0in /  0.0mm CLR
20:29 84 °F /  28.9 °C 61 °F /  16.1 °C 29.8in /  1010.7hPa SE 6.9mph /  11.1km/h 9.2mph /  14.8km/h 46% 0in /  0.0mm CLR
20:34 84 °F /  28.9 °C 61.5 °F /  16.4 °C 29.9in /  1011.0hPa East 6.9mph /  11.1km/h 6.9mph /  11.1km/h 47% 0in /  0.0mm CLR
20:39 84 °F /  28.9 °C 62.8 °F /  17.1 °C 29.9in /  1011.0hPa SSE 5.9mph /  9.5km/h 10.4mph /  16.7km/h 49% 0in /  0.0mm CLR
20:44 83.7 °F /  28.7 °C 63 °F /  17.2 °C 29.9in /  1011.0hPa East 5.9mph /  9.5km/h 9.2mph /  14.8km/h 50% 0in /  0.0mm CLR
20:49 83.5 °F /  28.6 °C 63.3 °F /  17.4 °C 29.9in /  1010.9hPa SE 5.9mph /  9.5km/h 9.2mph /  14.8km/h 51% 0in /  0.0mm CLR
20:54 83.1 °F /  28.4 °C 63.7 °F /  17.6 °C 29.9in /  1010.9hPa SE 5.9mph /  9.5km/h 8.1mph /  13.0km/h 52% 0in /  0.0mm CLR
20:59 82.8 °F /  28.2 °C 63.9 °F /  17.7 °C 29.9in /  1010.9hPa ESE 5.9mph /  9.5km/h 8.1mph /  13.0km/h 53% 0in /  0.0mm CLR
21:04 82.6 °F /  28.1 °C 63.7 °F /  17.6 °C 29.9in /  1011.0hPa ESE 5.9mph /  9.5km/h 8.1mph /  13.0km/h 53% 0in /  0.0mm CLR
21:09 82.4 °F /  28.0 °C 64 °F /  17.8 °C 29.9in /  1011.0hPa ESE 5.4mph /  8.7km/h 5.8mph /  9.3km/h 54% 0in /  0.0mm CLR
21:14 82 °F /  27.8 °C 63.9 °F /  17.7 °C 29.9in /  1011.0hPa North 5.4mph /  8.7km/h 6.9mph /  11.1km/h 54% 0in /  0.0mm CLR
21:19 81.9 °F /  27.7 °C 64 °F /  17.8 °C 29.9in /  1011.0hPa NE 4.7mph /  7.6km/h 6.9mph /  11.1km/h 55% 0in /  0.0mm CLR
21:24 81.7 °F /  27.6 °C 64.6 °F /  18.1 °C 29.9in /  1011.0hPa NE 4.7mph /  7.6km/h 6.9mph /  11.1km/h 56% 0in /  0.0mm CLR
21:29 81.3 °F /  27.4 °C 64.6 °F /  18.1 °C 29.9in /  1011.0hPa NNE 4.7mph /  7.6km/h 6.9mph /  11.1km/h 57% 0in /  0.0mm CLR
21:34 81.1 °F /  27.3 °C 64.6 °F /  18.1 °C 29.9in /  1011.0hPa ESE 4.7mph /  7.6km/h 5.8mph /  9.3km/h 57% 0in /  0.0mm CLR
21:39 81 °F /  27.2 °C 64.8 °F /  18.2 °C 29.9in /  1011.0hPa NNE 4mph /  6.4km/h 5.8mph /  9.3km/h 58% 0in /  0.0mm CLR
21:44 80.8 °F /  27.1 °C 64.6 °F /  18.1 °C 29.9in /  1011.0hPa East 4mph /  6.4km/h 5.8mph /  9.3km/h 58% 0in /  0.0mm CLR
21:49 80.8 °F /  27.1 °C 65.1 °F /  18.4 °C 29.9in /  1011.3hPa ENE 2.4mph /  3.9km/h 5.8mph /  9.3km/h 59% 0in /  0.0mm CLR
21:54 80.6 °F /  27.0 °C 64.9 °F /  18.3 °C 29.9in /  1011.3hPa ESE 2.4mph /  3.9km/h 4.6mph /  7.4km/h 59% 0in /  0.0mm CLR
21:59 80.4 °F /  26.9 °C 64.8 °F /  18.2 °C 29.9in /  1011.3hPa East 2.4mph /  3.9km/h 3.5mph /  5.6km/h 59% 0in /  0.0mm CLR
22:04 80.4 °F /  26.9 °C 64.8 °F /  18.2 °C 29.9in /  1011.6hPa NNE 2.4mph /  3.9km/h 5.8mph /  9.3km/h 59% 0in /  0.0mm CLR
22:09 80.2 °F /  26.8 °C 65.1 °F /  18.4 °C 29.9in /  1011.6hPa East 2.4mph /  3.9km/h 4.6mph /  7.4km/h 60% 0in /  0.0mm CLR
22:14 80.2 °F /  26.8 °C 65.7 °F /  18.7 °C 29.9in /  1011.6hPa NE 2.4mph /  3.9km/h 5.8mph /  9.3km/h 61% 0in /  0.0mm CLR
22:19 80.1 °F /  26.7 °C 65.5 °F /  18.6 °C 29.9in /  1011.7hPa ESE 2.4mph /  3.9km/h 3.1mph /  5.0km/h 61% 0in /  0.0mm CLR
22:24 80.1 °F /  26.7 °C 65.8 °F /  18.8 °C 29.9in /  1011.7hPa NE 2.4mph /  3.9km/h 4.6mph /  7.4km/h 62% 0in /  0.0mm CLR
22:29 79.9 °F /  26.6 °C 65.7 °F /  18.7 °C 29.9in /  1011.7hPa NE 2.9mph /  4.7km/h 6.4mph /  10.3km/h 62% 0in /  0.0mm CLR
22:34 79.7 °F /  26.5 °C 65.5 °F /  18.6 °C 29.9in /  1011.8hPa North 2.9mph /  4.7km/h 5.9mph /  9.5km/h 62% 0in /  0.0mm CLR
22:39 79.3 °F /  26.3 °C 65.1 °F /  18.4 °C 29.9in /  1011.8hPa North 4.3mph /  6.9km/h 6.9mph /  11.1km/h 62% 0in /  0.0mm CLR
22:44 79.2 °F /  26.2 °C 65.5 °F /  18.6 °C 29.9in /  1011.8hPa NNE 4.3mph /  6.9km/h 6.9mph /  11.1km/h 63% 0in /  0.0mm CLR
22:49 79 °F /  26.1 °C 65.8 °F /  18.8 °C 29.9in /  1012.0hPa North 5.2mph /  8.4km/h 5.8mph /  9.3km/h 64% 0in /  0.0mm CLR
22:54 78.8 °F /  26.0 °C 66 °F /  18.9 °C 29.9in /  1012.0hPa NNE 5.2mph /  8.4km/h 8.1mph /  13.0km/h 65% 0in /  0.0mm CLR
22:59 78.6 °F /  25.9 °C 65.8 °F /  18.8 °C 29.9in /  1012.0hPa NE 5.4mph /  8.7km/h 8.1mph /  13.0km/h 65% 0in /  0.0mm CLR
23:04 78.4 °F /  25.8 °C 66 °F /  18.9 °C 29.9in /  1012.0hPa ENE 5.4mph /  8.7km/h 8.1mph /  13.0km/h 66% 0in /  0.0mm CLR
23:09 78.3 °F /  25.7 °C 66.4 °F /  19.1 °C 29.9in /  1012.0hPa NE 5.4mph /  8.7km/h 9.2mph /  14.8km/h 67% 0in /  0.0mm CLR
23:14 78.3 °F /  25.7 °C 66.4 °F /  19.1 °C 29.9in /  1012.0hPa NE 5.4mph /  8.7km/h 6.9mph /  11.1km/h 67% 0in /  0.0mm CLR
23:19 78.1 °F /  25.6 °C 66.7 °F /  19.3 °C 29.9in /  1011.9hPa NE 5.2mph /  8.4km/h 8.1mph /  13.0km/h 68% 0in /  0.0mm CLR
23:24 78.1 °F /  25.6 °C 67.1 °F /  19.5 °C 29.9in /  1011.9hPa ENE 5.2mph /  8.4km/h 5.8mph /  9.3km/h 69% 0in /  0.0mm CLR
23:29 77.7 °F /  25.4 °C 66.7 °F /  19.3 °C 29.9in /  1011.9hPa NE 4.3mph /  6.9km/h 8.1mph /  13.0km/h 69% 0in /  0.0mm CLR
23:34 77.5 °F /  25.3 °C 66.9 °F /  19.4 °C 29.9in /  1011.9hPa ENE 4.3mph /  6.9km/h 9.2mph /  14.8km/h 70% 0in /  0.0mm CLR
23:39 77.4 °F /  25.2 °C 67.3 °F /  19.6 °C 29.9in /  1011.9hPa NE 5.9mph /  9.5km/h 8.5mph /  13.7km/h 71% 0in /  0.0mm CLR
23:44 76.8 °F /  24.9 °C 66.7 °F /  19.3 °C 29.9in /  1011.9hPa NE 5.9mph /  9.5km/h 11.5mph /  18.5km/h 71% 0in /  0.0mm CLR
23:49 76.6 °F /  24.8 °C 66.9 °F /  19.4 °C 29.9in /  1011.7hPa ENE 7.4mph /  11.9km/h 10.4mph /  16.7km/h 72% 0in /  0.0mm CLR
23:54 76.6 °F /  24.8 °C 66.9 °F /  19.4 °C 29.9in /  1011.7hPa NE 7.4mph /  11.9km/h 10mph /  16.1km/h 72% 0in /  0.0mm CLR
23:59 76.6 °F /  24.8 °C 66.9 °F /  19.4 °C 29.9in /  1011.7hPa ENE 7.4mph /  11.9km/h 8.1mph /  13.0km/h 72% 0in /  0.0mm CLR
Murcia-Puente Tocinos, España
Compliments of Weather Underground - 2.75 mb

La estación de MeteoMurcia.com, publica sus datos en los siguientes proyectos:

Weather Underground PWS IMURCIAP2 Meteoclimatic www.awekas.at

W3Counter
Web Analytics